»·PEaware :: QXE6270 KMMH-KSMF

QXE6270 :: KMMH-KSMF

FLIGHT INFORMATION

Flight Status: Arrived
Operator:
Horizon Air
More flights by this operator :: More flights under this callsign
Pilot: Kris A. (796)
Aircraft: DEHAVILLAND DASH 8 400
(DH8D)
More flights by this aircraft type
Origin: KMMH Mammoth Yosemite
United States
Destination: KSMF Sacramento Intl
United States
More flights between these airports :: More routes between these airports
Route: OENNS1 FRA UYOKA V23 WRAPS5
File this flight plan on PilotEdge
Remarks:
Altitude:
(Current/Filed)
16,500ft
Speed:
(Current/Filed)
250kts
Departed: 09-Jun-16 03:20 PM
Arrived: 09-Jun-16 04:22 PM
Distance/Time
Traveled:
145nm/1:01
Distance/Time
To Go:
Arrived

Flight Plot

Page will automatically refresh every two minutes.


Map Options




Map Legend


Flown Route
Filed Route
Departure Airport
Arrival Airport
Navaid (VOR, NDB)
Fix

Horizontal Profiles

Position Reports

Time Latitude Longitude Heading Altitude Ground
Speed
09-Jun-16 15:03 37.627342 -118.844223 18 7135ft 0kts
09-Jun-16 15:04 37.627342 -118.844223 18 7135ft 0kts
09-Jun-16 15:05 37.627342 -118.844223 18 7135ft 0kts
09-Jun-16 15:06 37.627342 -118.844223 18 7135ft 0kts
09-Jun-16 15:07 37.627342 -118.844223 18 7135ft 0kts
09-Jun-16 15:08 37.626938 -118.844397 18 7135ft 0kts
09-Jun-16 15:09 37.626938 -118.844397 18 7135ft 0kts
09-Jun-16 15:10 37.626938 -118.844397 18 7135ft 0kts
09-Jun-16 15:11 37.626938 -118.844397 18 7135ft 0kts
09-Jun-16 15:12 37.627208 -118.845101 285 7135ft 12kts
09-Jun-16 15:13 37.627563 -118.848971 287 7135ft 14kts
09-Jun-16 15:14 37.627616 -118.849677 212 7135ft 0kts
09-Jun-16 15:15 37.627616 -118.849677 212 7135ft 0kts
09-Jun-16 15:16 37.627079 -118.849703 116 7135ft 0kts
09-Jun-16 15:17 37.618727 -118.818151 112 7447ft 151kts
09-Jun-16 15:18 37.611689 -118.769304 96 9194ft 163kts
09-Jun-16 15:19 37.606356 -118.688331 100 10700ft 231kts
09-Jun-16 15:20 37.584058 -118.624686 120 12241ft 244kts
09-Jun-16 15:21 37.550887 -118.547374 123 14094ft 255kts
09-Jun-16 15:22 37.506899 -118.480833 170 15644ft 238kts
09-Jun-16 15:23 37.440296 -118.486022 195 16375ft 264kts
09-Jun-16 15:24 37.366389 -118.508778 198 16269ft 280kts
09-Jun-16 15:25 37.311037 -118.568678 245 16274ft 275kts
09-Jun-16 15:26 37.287886 -118.659740 252 16313ft 273kts
09-Jun-16 15:27 37.270192 -118.753215 253 16338ft 276kts
09-Jun-16 15:28 37.252130 -118.847317 253 16374ft 277kts
09-Jun-16 15:29 37.233998 -118.941059 253 16429ft 277kts
09-Jun-16 15:30 37.215524 -119.035489 252 16415ft 278kts
09-Jun-16 15:31 37.197077 -119.129443 252 16391ft 277kts
09-Jun-16 15:32 37.178522 -119.223573 252 16363ft 279kts
09-Jun-16 15:33 37.160003 -119.317311 252 16512ft 274kts
09-Jun-16 15:34 37.141459 -119.410417 252 16547ft 276kts
09-Jun-16 15:35 37.122742 -119.504104 252 16527ft 278kts
09-Jun-16 15:36 37.108315 -119.599270 270 16513ft 284kts
09-Jun-16 15:37 37.126981 -119.696359 279 16508ft 288kts
09-Jun-16 15:38 37.148374 -119.793243 279 16501ft 288kts
09-Jun-16 15:39 37.169740 -119.890169 279 16498ft 288kts
09-Jun-16 15:40 37.191017 -119.986953 279 16497ft 287kts
09-Jun-16 15:41 37.212024 -120.083528 279 16495ft 288kts
09-Jun-16 15:42 37.249248 -120.172921 311 16500ft 307kts
09-Jun-16 15:43 37.316108 -120.240785 314 16497ft 309kts
09-Jun-16 15:44 37.383678 -120.307761 313 16496ft 309kts
09-Jun-16 15:45 37.450994 -120.374940 313 16497ft 309kts
09-Jun-16 15:46 37.518298 -120.442099 313 16502ft 309kts
09-Jun-16 15:47 37.585251 -120.509077 313 16503ft 309kts
09-Jun-16 15:48 37.652367 -120.576462 313 16505ft 309kts
09-Jun-16 15:49 37.719528 -120.643976 313 16509ft 309kts
09-Jun-16 15:50 37.786714 -120.711729 313 16511ft 309kts
09-Jun-16 15:51 37.853703 -120.779546 313 16512ft 309kts
09-Jun-16 15:52 37.920389 -120.847024 313 16514ft 308kts
09-Jun-16 15:53 37.987269 -120.914974 313 16515ft 308kts
09-Jun-16 15:54 38.053964 -120.982390 313 16512ft 308kts
09-Jun-16 15:55 38.112114 -121.058292 302 16511ft 300kts
09-Jun-16 15:56 38.166318 -121.139282 303 16512ft 301kts
09-Jun-16 15:57 38.220816 -121.219733 303 16510ft 301kts
09-Jun-16 15:58 38.275492 -121.300780 303 16510ft 301kts
09-Jun-16 15:59 38.330086 -121.382075 303 16499ft 302kts
09-Jun-16 16:00 38.384608 -121.463248 303 16501ft 301kts
09-Jun-16 16:01 38.438771 -121.543599 307 15692ft 298kts
09-Jun-16 16:02 38.509211 -121.601957 323 14533ft 292kts
09-Jun-16 16:03 38.576860 -121.653780 323 12161ft 280kts
09-Jun-16 16:04 38.650700 -121.675081 356 10115ft 258kts
09-Jun-16 16:05 38.707999 -121.661112 58 10007ft 203kts
09-Jun-16 16:06 38.726850 -121.589800 79 9059ft 217kts
09-Jun-16 16:07 38.741620 -121.516128 83 8049ft 210kts
09-Jun-16 16:08 38.751250 -121.441678 82 6648ft 210kts
09-Jun-16 16:09 38.788717 -121.402640 332 5266ft 205kts
09-Jun-16 16:10 38.834520 -121.444229 337 3747ft 203kts
09-Jun-16 16:11 38.862764 -121.404149 125 2254ft 180kts
09-Jun-16 16:12 38.819048 -121.404601 190 2034ft 164kts
09-Jun-16 16:13 38.774732 -121.415522 190 1994ft 159kts
09-Jun-16 16:14 38.745635 -121.449556 245 2001ft 146kts
09-Jun-16 16:15 38.756497 -121.499830 287 2039ft 161kts
09-Jun-16 16:16 38.771070 -121.557256 275 2022ft 149kts
09-Jun-16 16:17 38.757129 -121.593140 193 790ft 113kts
09-Jun-16 16:18 38.721818 -121.600547 179 354ft 120kts
09-Jun-16 16:19 38.696603 -121.601189 168 36ft 20kts
09-Jun-16 16:20 38.691859 -121.597583 87 36ft 13kts
09-Jun-16 16:21 38.692555 -121.595578 90 35ft 0kts
09-Jun-16 16:22 38.692555 -121.595578 90 35ft 0kts
09-Jun-16 16:23 38.692555 -121.595578 90 35ft 0kts
09-Jun-16 16:24 38.692555 -121.595578 90 35ft 0kts
09-Jun-16 16:25 38.692555 -121.595578 90 35ft 0kts
09-Jun-16 16:26 38.692555 -121.595578 90 35ft 0kts

Navigation Log

Ident Type
Flight plan parsing failed, navigation log unavailable